sensor_id;sensor_type;location;lat;lon;timestamp;pressure;altitude;pressure_sealevel;temperature;humidity
70323;BME280;57735;56.264;43.898;2022-10-13T00:00:00;100796.66;;;6.17;77.45
70323;BME280;57735;56.264;43.898;2022-10-13T00:02:31;100793.91;;;6.18;77.45
70323;BME280;57735;56.264;43.898;2022-10-13T00:05:01;100796.03;;;6.13;77.55
70323;BME280;57735;56.264;43.898;2022-10-13T00:07:33;100792.66;;;6.11;78.00
70323;BME280;57735;56.264;43.898;2022-10-13T00:10:04;100790.13;;;6.10;77.97
70323;BME280;57735;56.264;43.898;2022-10-13T00:12:36;100788.53;;;6.07;77.81
70323;BME280;57735;56.264;43.898;2022-10-13T00:15:08;100793.22;;;6.04;77.85
70323;BME280;57735;56.264;43.898;2022-10-13T00:17:39;100787.22;;;6.02;78.39
70323;BME280;57735;56.264;43.898;2022-10-13T00:20:11;100793.47;;;6.01;78.62
70323;BME280;57735;56.264;43.898;2022-10-13T00:22:42;100784.56;;;6.02;78.56
70323;BME280;57735;56.264;43.898;2022-10-13T00:25:13;100791.88;;;5.98;78.51
70323;BME280;57735;56.264;43.898;2022-10-13T00:27:43;100789.13;;;6.00;78.42
70323;BME280;57735;56.264;43.898;2022-10-13T00:30:14;100789.03;;;6.01;78.58
70323;BME280;57735;56.264;43.898;2022-10-13T00:32:45;100786.59;;;5.98;78.42
70323;BME280;57735;56.264;43.898;2022-10-13T00:35:16;100790.19;;;5.97;78.87
70323;BME280;57735;56.264;43.898;2022-10-13T00:37:47;100787.66;;;5.95;78.82
70323;BME280;57735;56.264;43.898;2022-10-13T00:40:23;100794.97;;;5.92;79.03
70323;BME280;57735;56.264;43.898;2022-10-13T00:42:54;100790.75;;;5.89;79.05
70323;BME280;57735;56.264;43.898;2022-10-13T00:45:26;100788.19;;;5.88;78.86
70323;BME280;57735;56.264;43.898;2022-10-13T00:48:00;100778.72;;;5.85;79.02
70323;BME280;57735;56.264;43.898;2022-10-13T00:50:39;100779.78;;;5.83;79.25
70323;BME280;57735;56.264;43.898;2022-10-13T00:53:11;100769.41;;;5.80;79.35
70323;BME280;57735;56.264;43.898;2022-10-13T00:55:45;100783.59;;;5.79;79.43
70323;BME280;57735;56.264;43.898;2022-10-13T00:58:18;100783.69;;;5.77;79.42
70323;BME280;57735;56.264;43.898;2022-10-13T01:00:54;100787.53;;;5.73;79.24
70323;BME280;57735;56.264;43.898;2022-10-13T01:03:25;100778.38;;;5.66;79.26
70323;BME280;57735;56.264;43.898;2022-10-13T01:05:59;100785.78;;;5.61;79.37
70323;BME280;57735;56.264;43.898;2022-10-13T01:08:31;100788.66;;;5.58;79.68
70323;BME280;57735;56.264;43.898;2022-10-13T01:14:29;100783.94;;;5.50;79.71
70323;BME280;57735;56.264;43.898;2022-10-13T01:23:15;100788.53;;;5.36;78.88
70323;BME280;57735;56.264;43.898;2022-10-13T01:29:07;100790.03;;;5.27;78.83
70323;BME280;57735;56.264;43.898;2022-10-13T01:34:54;100797.03;;;5.15;78.70
70323;BME280;57735;56.264;43.898;2022-10-13T01:43:03;100802.56;;;5.00;78.39
70323;BME280;57735;56.264;43.898;2022-10-13T01:45:41;100799.47;;;4.93;78.17
70323;BME280;57735;56.264;43.898;2022-10-13T01:48:15;100796.22;;;4.89;78.18
70323;BME280;57735;56.264;43.898;2022-10-13T01:50:47;100799.91;;;4.87;78.10
70323;BME280;57735;56.264;43.898;2022-10-13T01:53:20;100798.22;;;4.86;78.28
70323;BME280;57735;56.264;43.898;2022-10-13T01:55:57;100796.97;;;4.79;78.50
70323;BME280;57735;56.264;43.898;2022-10-13T01:58:31;100804.47;;;4.72;78.58
70323;BME280;57735;56.264;43.898;2022-10-13T02:04:11;100806.16;;;4.61;78.74
70323;BME280;57735;56.264;43.898;2022-10-13T02:07:08;100805.81;;;4.52;79.17
70323;BME280;57735;56.264;43.898;2022-10-13T02:12:33;100805.59;;;4.43;79.43
70323;BME280;57735;56.264;43.898;2022-10-13T02:15:09;100808.56;;;4.38;79.75
70323;BME280;57735;56.264;43.898;2022-10-13T02:17:44;100814.16;;;4.34;79.61
70323;BME280;57735;56.264;43.898;2022-10-13T02:20:15;100808.13;;;4.32;79.71
70323;BME280;57735;56.264;43.898;2022-10-13T02:22:54;100811.81;;;4.29;79.78
70323;BME280;57735;56.264;43.898;2022-10-13T02:25:27;100808.53;;;4.26;79.81
70323;BME280;57735;56.264;43.898;2022-10-13T02:28:01;100818.44;;;4.22;79.87
70323;BME280;57735;56.264;43.898;2022-10-13T02:30:32;100816.25;;;4.16;79.86
70323;BME280;57735;56.264;43.898;2022-10-13T02:33:03;100812.84;;;4.14;80.18
70323;BME280;57735;56.264;43.898;2022-10-13T02:35:34;100822.66;;;4.12;80.33
70323;BME280;57735;56.264;43.898;2022-10-13T02:38:05;100819.47;;;4.07;80.19
70323;BME280;57735;56.264;43.898;2022-10-13T02:40:38;100819.91;;;4.01;80.27
70323;BME280;57735;56.264;43.898;2022-10-13T02:43:09;100827.16;;;3.97;80.66
70323;BME280;57735;56.264;43.898;2022-10-13T02:45:40;100830.84;;;3.95;80.69
70323;BME280;57735;56.264;43.898;2022-10-13T02:48:10;100830.84;;;3.95;80.60
70323;BME280;57735;56.264;43.898;2022-10-13T02:50:41;100836.22;;;3.93;80.85
70323;BME280;57735;56.264;43.898;2022-10-13T02:53:12;100851.00;;;3.96;80.51
70323;BME280;57735;56.264;43.898;2022-10-13T02:55:43;100839.69;;;3.94;80.28
70323;BME280;57735;56.264;43.898;2022-10-13T02:58:14;100850.25;;;3.94;80.37
70323;BME280;57735;56.264;43.898;2022-10-13T03:00:45;100841.56;;;3.92;80.56
70323;BME280;57735;56.264;43.898;2022-10-13T03:03:15;100850.44;;;3.91;80.50
70323;BME280;57735;56.264;43.898;2022-10-13T03:05:46;100842.53;;;3.91;80.21
70323;BME280;57735;56.264;43.898;2022-10-13T03:08:17;100846.84;;;3.92;79.95
70323;BME280;57735;56.264;43.898;2022-10-13T03:10:48;100846.94;;;3.90;79.64
70323;BME280;57735;56.264;43.898;2022-10-13T03:13:20;100847.13;;;3.87;79.71
70323;BME280;57735;56.264;43.898;2022-10-13T03:15:50;100848.31;;;3.83;79.68
70323;BME280;57735;56.264;43.898;2022-10-13T03:18:21;100844.91;;;3.81;79.87
70323;BME280;57735;56.264;43.898;2022-10-13T03:21:00;100845.13;;;3.78;79.76
70323;BME280;57735;56.264;43.898;2022-10-13T03:23:31;100835.59;;;3.75;79.97
70323;BME280;57735;56.264;43.898;2022-10-13T03:26:02;100848.03;;;3.73;79.81
70323;BME280;57735;56.264;43.898;2022-10-13T03:28:34;100847.50;;;3.68;80.01
70323;BME280;57735;56.264;43.898;2022-10-13T03:31:09;100842.53;;;3.64;80.06
70323;BME280;57735;56.264;43.898;2022-10-13T03:33:41;100845.34;;;3.61;80.17
70323;BME280;57735;56.264;43.898;2022-10-13T03:36:12;100847.97;;;3.61;80.28
70323;BME280;57735;56.264;43.898;2022-10-13T03:38:46;100846.09;;;3.63;80.12
70323;BME280;57735;56.264;43.898;2022-10-13T03:41:17;100846.09;;;3.63;80.01
70323;BME280;57735;56.264;43.898;2022-10-13T03:43:48;100848.84;;;3.61;79.82
70323;BME280;57735;56.264;43.898;2022-10-13T03:46:20;100856.66;;;3.63;79.70
70323;BME280;57735;56.264;43.898;2022-10-13T03:48:51;100854.09;;;3.61;79.50
70323;BME280;57735;56.264;43.898;2022-10-13T03:51:23;100852.31;;;3.62;79.43
70323;BME280;57735;56.264;43.898;2022-10-13T03:53:54;100855.88;;;3.61;79.27
70323;BME280;57735;56.264;43.898;2022-10-13T03:56:26;100856.16;;;3.56;78.47
70323;BME280;57735;56.264;43.898;2022-10-13T03:58:58;100859.75;;;3.55;78.02
70323;BME280;57735;56.264;43.898;2022-10-13T04:01:30;100858.28;;;3.51;77.16
70323;BME280;57735;56.264;43.898;2022-10-13T04:04:01;100858.38;;;3.49;76.89
70323;BME280;57735;56.264;43.898;2022-10-13T04:06:32;100862.78;;;3.49;76.71
70323;BME280;57735;56.264;43.898;2022-10-13T04:09:03;100876.72;;;3.51;76.74
70323;BME280;57735;56.264;43.898;2022-10-13T04:11:35;100874.09;;;3.51;76.42
70323;BME280;57735;56.264;43.898;2022-10-13T04:14:05;100874.09;;;3.51;76.29
70323;BME280;57735;56.264;43.898;2022-10-13T04:16:38;100867.84;;;3.52;76.10
70323;BME280;57735;56.264;43.898;2022-10-13T04:19:10;100875.97;;;3.49;75.77
70323;BME280;57735;56.264;43.898;2022-10-13T04:21:42;100878.59;;;3.49;75.74
70323;BME280;57735;56.264;43.898;2022-10-13T04:24:14;100875.03;;;3.50;75.69
70323;BME280;57735;56.264;43.898;2022-10-13T04:26:46;100882.94;;;3.50;75.52
70323;BME280;57735;56.264;43.898;2022-10-13T04:29:17;100877.44;;;3.53;75.55
70323;BME280;57735;56.264;43.898;2022-10-13T04:31:48;100886.88;;;3.57;75.72
70323;BME280;57735;56.264;43.898;2022-10-13T04:34:22;100879.53;;;3.62;75.56
70323;BME280;57735;56.264;43.898;2022-10-13T04:36:56;100888.00;;;3.67;75.47
70323;BME280;57735;56.264;43.898;2022-10-13T04:39:27;100891.16;;;3.72;75.55
70323;BME280;57735;56.264;43.898;2022-10-13T04:41:58;100887.31;;;3.78;75.34
70323;BME280;57735;56.264;43.898;2022-10-13T04:44:29;100880.78;;;3.83;75.07
70323;BME280;57735;56.264;43.898;2022-10-13T04:47:00;100889.25;;;3.89;75.00
70323;BME280;57735;56.264;43.898;2022-10-13T04:49:31;100881.78;;;3.95;74.74
70323;BME280;57735;56.264;43.898;2022-10-13T04:52:02;100890.34;;;3.99;74.38
70323;BME280;57735;56.264;43.898;2022-10-13T04:54:35;100889.31;;;4.01;74.48
70323;BME280;57735;56.264;43.898;2022-10-13T04:57:06;100897.09;;;4.03;74.49
70323;BME280;57735;56.264;43.898;2022-10-13T04:59:39;100893.84;;;3.99;74.22
70323;BME280;57735;56.264;43.898;2022-10-13T05:02:10;100906.00;;;4.02;74.49
70323;BME280;57735;56.264;43.898;2022-10-13T05:04:41;100903.03;;;4.06;74.53
70323;BME280;57735;56.264;43.898;2022-10-13T05:07:12;100902.84;;;4.09;74.55
70323;BME280;57735;56.264;43.898;2022-10-13T05:09:42;100899.16;;;4.12;74.56
70323;BME280;57735;56.264;43.898;2022-10-13T05:12:16;100903.06;;;4.19;74.55
70323;BME280;57735;56.264;43.898;2022-10-13T05:14:47;100898.34;;;4.24;74.62
70323;BME280;57735;56.264;43.898;2022-10-13T05:17:17;100901.25;;;4.34;74.69
70323;BME280;57735;56.264;43.898;2022-10-13T05:19:48;100914.13;;;4.38;74.50
70323;BME280;57735;56.264;43.898;2022-10-13T05:22:19;100911.59;;;4.37;74.17
70323;BME280;57735;56.264;43.898;2022-10-13T05:24:50;100901.78;;;4.39;74.24
70323;BME280;57735;56.264;43.898;2022-10-13T05:27:21;100912.88;;;4.44;74.38
70323;BME280;57735;56.264;43.898;2022-10-13T05:29:52;100903.63;;;4.51;74.27
70323;BME280;57735;56.264;43.898;2022-10-13T05:32:23;100912.91;;;4.56;74.23
70323;BME280;57735;56.264;43.898;2022-10-13T05:34:59;100911.22;;;4.55;74.34
70323;BME280;57735;56.264;43.898;2022-10-13T05:37:34;100903.84;;;4.61;74.29
70323;BME280;57735;56.264;43.898;2022-10-13T05:40:05;100914.00;;;4.67;74.41
70323;BME280;57735;56.264;43.898;2022-10-13T05:42:36;100914.31;;;4.75;74.48
70323;BME280;57735;56.264;43.898;2022-10-13T05:45:09;100909.38;;;4.83;74.56
70323;BME280;57735;56.264;43.898;2022-10-13T05:47:40;100914.03;;;4.92;74.20
70323;BME280;57735;56.264;43.898;2022-10-13T05:50:13;100906.75;;;4.96;74.46
70323;BME280;57735;56.264;43.898;2022-10-13T05:52:44;100909.81;;;5.02;74.57
70323;BME280;57735;56.264;43.898;2022-10-13T05:55:18;100911.91;;;5.10;74.13
70323;BME280;57735;56.264;43.898;2022-10-13T05:57:49;100908.13;;;5.14;74.00
70323;BME280;57735;56.264;43.898;2022-10-13T06:00:21;100908.66;;;5.19;73.80
70323;BME280;57735;56.264;43.898;2022-10-13T06:03:05;100900.50;;;5.22;73.77
70323;BME280;57735;56.264;43.898;2022-10-13T06:05:38;100908.22;;;5.25;73.95
70323;BME280;57735;56.264;43.898;2022-10-13T06:08:10;100910.66;;;5.28;73.88
70323;BME280;57735;56.264;43.898;2022-10-13T06:10:41;100908.13;;;5.26;73.74
70323;BME280;57735;56.264;43.898;2022-10-13T06:13:12;100906.00;;;5.32;74.01
70323;BME280;57735;56.264;43.898;2022-10-13T06:15:43;100903.34;;;5.32;73.83
70323;BME280;57735;56.264;43.898;2022-10-13T06:18:16;100904.19;;;5.32;73.75
70323;BME280;57735;56.264;43.898;2022-10-13T06:20:47;100898.56;;;5.37;73.88
70323;BME280;57735;56.264;43.898;2022-10-13T06:23:20;100900.06;;;5.41;73.84
70323;BME280;57735;56.264;43.898;2022-10-13T06:25:52;100891.81;;;5.45;73.92
70323;BME280;57735;56.264;43.898;2022-10-13T06:28:23;100899.31;;;5.51;73.70
70323;BME280;57735;56.264;43.898;2022-10-13T06:30:54;100896.13;;;5.59;73.91
70323;BME280;57735;56.264;43.898;2022-10-13T06:33:26;100900.75;;;5.68;73.89
70323;BME280;57735;56.264;43.898;2022-10-13T06:36:03;100903.59;;;5.78;74.08
70323;BME280;57735;56.264;43.898;2022-10-13T06:38:37;100902.91;;;5.87;73.93
70323;BME280;57735;56.264;43.898;2022-10-13T06:41:08;100899.75;;;5.94;73.69
70323;BME280;57735;56.264;43.898;2022-10-13T06:43:41;100919.66;;;6.00;73.43
70323;BME280;57735;56.264;43.898;2022-10-13T06:46:12;100918.22;;;6.07;73.42
70323;BME280;57735;56.264;43.898;2022-10-13T06:48:43;100918.31;;;6.18;72.91
70323;BME280;57735;56.264;43.898;2022-10-13T06:51:13;100930.06;;;6.14;73.42
70323;BME280;57735;56.264;43.898;2022-10-13T06:53:44;100918.91;;;6.22;74.48
70323;BME280;57735;56.264;43.898;2022-10-13T06:56:15;100925.09;;;6.10;73.17
70323;BME280;57735;56.264;43.898;2022-10-13T06:58:46;100928.03;;;5.81;73.74
70323;BME280;57735;56.264;43.898;2022-10-13T07:01:17;100924.97;;;5.75;74.64
70323;BME280;57735;56.264;43.898;2022-10-13T07:03:49;100926.88;;;5.73;74.96
70323;BME280;57735;56.264;43.898;2022-10-13T07:06:25;100927.63;;;5.62;74.90
70323;BME280;57735;56.264;43.898;2022-10-13T07:08:56;100924.31;;;5.71;76.19
70323;BME280;57735;56.264;43.898;2022-10-13T07:11:30;100923.16;;;5.75;75.56
70323;BME280;57735;56.264;43.898;2022-10-13T07:14:01;100926.44;;;5.79;75.70
70323;BME280;57735;56.264;43.898;2022-10-13T07:16:32;100939.13;;;5.74;75.67
70323;BME280;57735;56.264;43.898;2022-10-13T07:19:03;100933.22;;;5.83;75.97
70323;BME280;57735;56.264;43.898;2022-10-13T07:21:34;100931.50;;;5.94;76.03
70323;BME280;57735;56.264;43.898;2022-10-13T07:24:05;100940.19;;;5.97;75.37
70323;BME280;57735;56.264;43.898;2022-10-13T07:26:41;100934.69;;;6.00;76.23
70323;BME280;57735;56.264;43.898;2022-10-13T07:29:16;100932.88;;;6.00;75.65
70323;BME280;57735;56.264;43.898;2022-10-13T07:31:47;100935.53;;;6.00;75.92
70323;BME280;57735;56.264;43.898;2022-10-13T07:34:18;100939.63;;;6.04;76.03
70323;BME280;57735;56.264;43.898;2022-10-13T07:36:48;100943.53;;;6.11;75.76
70323;BME280;57735;56.264;43.898;2022-10-13T07:39:19;100934.00;;;6.09;75.86
70323;BME280;57735;56.264;43.898;2022-10-13T07:41:50;100938.97;;;6.13;75.71
70323;BME280;57735;56.264;43.898;2022-10-13T07:44:21;100933.56;;;6.15;75.80
70323;BME280;57735;56.264;43.898;2022-10-13T07:46:52;100931.66;;;6.17;76.25
70323;BME280;57735;56.264;43.898;2022-10-13T07:49:23;100936.72;;;6.20;75.90
70323;BME280;57735;56.264;43.898;2022-10-13T07:51:54;100938.63;;;6.18;76.22
70323;BME280;57735;56.264;43.898;2022-10-13T07:54:26;100945.63;;;6.19;76.41
70323;BME280;57735;56.264;43.898;2022-10-13T07:56:57;100945.88;;;6.27;76.26
70323;BME280;57735;56.264;43.898;2022-10-13T07:59:29;100944.81;;;6.29;76.97
70323;BME280;57735;56.264;43.898;2022-10-13T08:02:01;100941.50;;;6.39;76.42
70323;BME280;57735;56.264;43.898;2022-10-13T08:04:34;100948.88;;;6.46;76.20
70323;BME280;57735;56.264;43.898;2022-10-13T08:07:05;100945.16;;;6.49;76.02
70323;BME280;57735;56.264;43.898;2022-10-13T08:09:36;100946.63;;;6.53;76.10
70323;BME280;57735;56.264;43.898;2022-10-13T08:12:07;100952.03;;;6.51;76.22
70323;BME280;57735;56.264;43.898;2022-10-13T08:14:38;100951.09;;;6.52;76.33
70323;BME280;57735;56.264;43.898;2022-10-13T08:17:08;100955.19;;;6.56;76.20
70323;BME280;57735;56.264;43.898;2022-10-13T08:19:39;100948.03;;;6.70;76.19
70323;BME280;57735;56.264;43.898;2022-10-13T08:22:10;100946.47;;;6.78;76.12
70323;BME280;57735;56.264;43.898;2022-10-13T08:24:46;100948.16;;;6.79;75.78
70323;BME280;57735;56.264;43.898;2022-10-13T08:27:23;100952.28;;;6.83;75.88
70323;BME280;57735;56.264;43.898;2022-10-13T08:29:57;100956.50;;;6.86;75.62
70323;BME280;57735;56.264;43.898;2022-10-13T08:32:28;100942.13;;;6.77;75.33
70323;BME280;57735;56.264;43.898;2022-10-13T08:34:59;100948.91;;;6.81;75.68
70323;BME280;57735;56.264;43.898;2022-10-13T08:37:32;100952.75;;;6.88;75.75
70323;BME280;57735;56.264;43.898;2022-10-13T08:40:03;100949.66;;;6.94;75.57
70323;BME280;57735;56.264;43.898;2022-10-13T08:42:34;100954.13;;;6.94;75.55
70323;BME280;57735;56.264;43.898;2022-10-13T08:45:05;100948.94;;;6.92;75.54
70323;BME280;57735;56.264;43.898;2022-10-13T08:47:45;100965.97;;;7.01;75.33
70323;BME280;57735;56.264;43.898;2022-10-13T08:50:29;100958.00;;;7.01;75.24
70323;BME280;57735;56.264;43.898;2022-10-13T08:53:04;100951.63;;;7.04;75.20
70323;BME280;57735;56.264;43.898;2022-10-13T08:58:34;100949.94;;;7.03;75.33
70323;BME280;57735;56.264;43.898;2022-10-13T09:06:51;100947.69;;;7.43;74.88
70323;BME280;57735;56.264;43.898;2022-10-13T09:09:23;100954.94;;;7.63;73.79
70323;BME280;57735;56.264;43.898;2022-10-13T09:11:54;100947.19;;;7.71;73.61
70323;BME280;57735;56.264;43.898;2022-10-13T09:14:30;100943.22;;;7.77;73.28
70323;BME280;57735;56.264;43.898;2022-10-13T09:17:22;100957.47;;;7.87;72.60
70323;BME280;57735;56.264;43.898;2022-10-13T09:19:59;100946.84;;;7.98;71.90
70323;BME280;57735;56.264;43.898;2022-10-13T09:22:33;100954.44;;;8.02;70.83
70323;BME280;57735;56.264;43.898;2022-10-13T09:27:57;100955.00;;;8.06;70.70
70323;BME280;57735;56.264;43.898;2022-10-13T09:30:37;100952.63;;;7.92;70.89
70323;BME280;57735;56.264;43.898;2022-10-13T09:35:44;100940.22;;;7.81;72.37
70323;BME280;57735;56.264;43.898;2022-10-13T09:38:18;100945.75;;;7.78;72.36
70323;BME280;57735;56.264;43.898;2022-10-13T09:41:12;100947.47;;;7.68;72.73
70323;BME280;57735;56.264;43.898;2022-10-13T09:46:31;100953.25;;;7.62;73.93
70323;BME280;57735;56.264;43.898;2022-10-13T09:52:03;100956.16;;;7.81;72.52
70323;BME280;57735;56.264;43.898;2022-10-13T10:00:00;100954.22;;;7.83;72.02
70323;BME280;57735;56.264;43.898;2022-10-13T10:05:24;100959.53;;;7.83;72.18
70323;BME280;57735;56.264;43.898;2022-10-13T10:08:01;100961.44;;;7.81;72.91
70323;BME280;57735;56.264;43.898;2022-10-13T10:10:39;100963.38;;;7.79;72.79
70323;BME280;57735;56.264;43.898;2022-10-13T10:13:13;100969.16;;;7.73;72.96
70323;BME280;57735;56.264;43.898;2022-10-13T10:16:01;100968.69;;;7.79;73.28
70323;BME280;57735;56.264;43.898;2022-10-13T10:18:48;100972.78;;;7.83;72.19
70323;BME280;57735;56.264;43.898;2022-10-13T10:26:55;100978.09;;;7.94;69.41
70323;BME280;57735;56.264;43.898;2022-10-13T10:29:54;100972.53;;;7.97;69.19
70323;BME280;57735;56.264;43.898;2022-10-13T10:32:41;100972.88;;;8.15;69.40
70323;BME280;57735;56.264;43.898;2022-10-13T10:35:31;100971.41;;;8.22;69.25
70323;BME280;57735;56.264;43.898;2022-10-13T10:44:01;100988.69;;;8.05;68.98
70323;BME280;57735;56.264;43.898;2022-10-13T10:46:39;100985.31;;;7.92;68.06
70323;BME280;57735;56.264;43.898;2022-10-13T10:49:24;100985.69;;;7.88;67.54
70323;BME280;57735;56.264;43.898;2022-10-13T10:52:00;100988.34;;;7.88;67.83
70323;BME280;57735;56.264;43.898;2022-10-13T10:54:55;100985.44;;;7.91;68.19
70323;BME280;57735;56.264;43.898;2022-10-13T10:57:39;100995.56;;;8.08;69.03
70323;BME280;57735;56.264;43.898;2022-10-13T11:00:18;100990.13;;;8.10;67.16
70323;BME280;57735;56.264;43.898;2022-10-13T11:05:57;100989.28;;;8.09;67.06
70323;BME280;57735;56.264;43.898;2022-10-13T11:16:41;100985.31;;;8.37;66.06
70323;BME280;57735;56.264;43.898;2022-10-13T11:19:38;100986.47;;;8.44;66.10
70323;BME280;57735;56.264;43.898;2022-10-13T11:22:11;100987.88;;;8.59;66.09
70323;BME280;57735;56.264;43.898;2022-10-13T11:24:45;100980.13;;;8.67;65.83
70323;BME280;57735;56.264;43.898;2022-10-13T11:27:39;100988.84;;;8.58;65.19
70323;BME280;57735;56.264;43.898;2022-10-13T11:30:45;100982.00;;;8.45;65.31
70323;BME280;57735;56.264;43.898;2022-10-13T11:33:53;100980.69;;;8.39;65.23
70323;BME280;57735;56.264;43.898;2022-10-13T11:45:46;100978.41;;;8.23;65.77
70323;BME280;57735;56.264;43.898;2022-10-13T11:48:44;100977.91;;;8.40;65.51
70323;BME280;57735;56.264;43.898;2022-10-13T11:54:32;100980.06;;;8.47;65.60
70323;BME280;57735;56.264;43.898;2022-10-13T11:57:25;100977.78;;;8.53;65.13
70323;BME280;57735;56.264;43.898;2022-10-13T12:00:13;100971.72;;;8.51;63.28
70323;BME280;57735;56.264;43.898;2022-10-13T12:02:50;100972.56;;;8.52;64.04
70323;BME280;57735;56.264;43.898;2022-10-13T12:05:26;100968.22;;;8.51;63.99
70323;BME280;57735;56.264;43.898;2022-10-13T12:08:03;100977.28;;;8.48;64.01
70323;BME280;57735;56.264;43.898;2022-10-13T12:10:35;100978.00;;;8.50;64.20
70323;BME280;57735;56.264;43.898;2022-10-13T12:13:19;100981.28;;;8.54;63.96
70323;BME280;57735;56.264;43.898;2022-10-13T12:16:02;100975.56;;;8.58;63.98
70323;BME280;57735;56.264;43.898;2022-10-13T12:18:38;100978.69;;;8.63;63.73
70323;BME280;57735;56.264;43.898;2022-10-13T12:21:12;100980.25;;;8.66;63.65
70323;BME280;57735;56.264;43.898;2022-10-13T12:23:44;100980.00;;;8.69;63.63
70323;BME280;57735;56.264;43.898;2022-10-13T12:26:23;100985.03;;;8.72;62.61
70323;BME280;57735;56.264;43.898;2022-10-13T12:29:01;100984.19;;;8.83;62.94
70323;BME280;57735;56.264;43.898;2022-10-13T12:31:46;100989.38;;;8.84;61.63
70323;BME280;57735;56.264;43.898;2022-10-13T12:34:23;100986.00;;;8.82;61.58
70323;BME280;57735;56.264;43.898;2022-10-13T12:37:04;100976.69;;;8.77;62.01
70323;BME280;57735;56.264;43.898;2022-10-13T12:39:35;100982.53;;;8.70;62.08
70323;BME280;57735;56.264;43.898;2022-10-13T12:42:10;100984.06;;;8.73;62.60
70323;BME280;57735;56.264;43.898;2022-10-13T12:44:45;100983.22;;;8.72;62.66
70323;BME280;57735;56.264;43.898;2022-10-13T12:53:18;100986.59;;;8.74;63.32
70323;BME280;57735;56.264;43.898;2022-10-13T12:55:58;100987.44;;;8.75;63.69
70323;BME280;57735;56.264;43.898;2022-10-13T12:58:32;100996.28;;;8.75;63.27
70323;BME280;57735;56.264;43.898;2022-10-13T13:01:20;100996.53;;;8.72;63.05
70323;BME280;57735;56.264;43.898;2022-10-13T13:04:00;100992.94;;;8.62;62.77
70323;BME280;57735;56.264;43.898;2022-10-13T13:06:36;100995.59;;;8.62;63.33
70323;BME280;57735;56.264;43.898;2022-10-13T13:09:20;100992.81;;;8.64;64.49
70323;BME280;57735;56.264;43.898;2022-10-13T13:14:44;100996.94;;;8.57;63.74
70323;BME280;57735;56.264;43.898;2022-10-13T13:19:52;100998.06;;;8.54;64.27
70323;BME280;57735;56.264;43.898;2022-10-13T13:22:24;101002.78;;;8.51;64.05
70323;BME280;57735;56.264;43.898;2022-10-13T13:24:56;101005.56;;;8.49;64.13
70323;BME280;57735;56.264;43.898;2022-10-13T13:27:34;101011.72;;;8.50;64.41
70323;BME280;57735;56.264;43.898;2022-10-13T13:30:11;101006.53;;;8.48;64.45
70323;BME280;57735;56.264;43.898;2022-10-13T13:32:44;101011.34;;;8.43;64.38
70323;BME280;57735;56.264;43.898;2022-10-13T13:35:15;101015.94;;;8.41;64.42
70323;BME280;57735;56.264;43.898;2022-10-13T13:37:50;101011.88;;;8.37;64.71
70323;BME280;57735;56.264;43.898;2022-10-13T13:40:24;101015.38;;;8.37;65.22
70323;BME280;57735;56.264;43.898;2022-10-13T13:42:55;101024.44;;;8.35;65.15
70323;BME280;57735;56.264;43.898;2022-10-13T13:45:26;101029.00;;;8.33;65.35
70323;BME280;57735;56.264;43.898;2022-10-13T13:47:57;101024.88;;;8.29;65.54
70323;BME280;57735;56.264;43.898;2022-10-13T13:50:35;101018.84;;;8.27;66.00
70323;BME280;57735;56.264;43.898;2022-10-13T13:53:06;101019.69;;;8.27;65.32
70323;BME280;57735;56.264;43.898;2022-10-13T13:55:37;101026.31;;;8.22;65.82
70323;BME280;57735;56.264;43.898;2022-10-13T13:58:08;101023.31;;;8.15;65.83
70323;BME280;57735;56.264;43.898;2022-10-13T14:00:42;101028.88;;;8.12;66.29
70323;BME280;57735;56.264;43.898;2022-10-13T14:03:15;101031.88;;;8.07;66.35
70323;BME280;57735;56.264;43.898;2022-10-13T14:05:49;101027.44;;;8.08;67.12
70323;BME280;57735;56.264;43.898;2022-10-13T14:08:19;101034.78;;;8.04;66.75
70323;BME280;57735;56.264;43.898;2022-10-13T14:10:50;101031.56;;;8.01;66.77
70323;BME280;57735;56.264;43.898;2022-10-13T14:13:21;101030.81;;;7.99;66.79
70323;BME280;57735;56.264;43.898;2022-10-13T14:15:58;101023.69;;;7.99;66.87
70323;BME280;57735;56.264;43.898;2022-10-13T14:18:30;101028.06;;;8.00;66.84
70323;BME280;57735;56.264;43.898;2022-10-13T14:21:04;101025.63;;;7.97;67.11
70323;BME280;57735;56.264;43.898;2022-10-13T14:23:36;101025.50;;;7.99;67.19
70323;BME280;57735;56.264;43.898;2022-10-13T14:26:07;101035.41;;;7.97;67.22
70323;BME280;57735;56.264;43.898;2022-10-13T14:28:40;101032.88;;;7.95;67.33
70323;BME280;57735;56.264;43.898;2022-10-13T14:31:11;101034.56;;;7.96;67.20
70323;BME280;57735;56.264;43.898;2022-10-13T14:33:42;101030.09;;;7.97;67.28
70323;BME280;57735;56.264;43.898;2022-10-13T14:36:15;101033.84;;;7.94;67.27
70323;BME280;57735;56.264;43.898;2022-10-13T14:38:49;101036.00;;;7.89;67.56
70323;BME280;57735;56.264;43.898;2022-10-13T14:41:24;101036.25;;;7.86;67.50
70323;BME280;57735;56.264;43.898;2022-10-13T14:43:58;101039.03;;;7.85;67.56
70323;BME280;57735;56.264;43.898;2022-10-13T14:46:31;101043.50;;;7.84;67.63
70323;BME280;57735;56.264;43.898;2022-10-13T14:49:02;101037.34;;;7.84;67.63
70323;BME280;57735;56.264;43.898;2022-10-13T14:51:36;101034.69;;;7.84;67.82
70323;BME280;57735;56.264;43.898;2022-10-13T14:54:06;101042.88;;;7.81;67.86
70323;BME280;57735;56.264;43.898;2022-10-13T14:56:37;101039.25;;;7.82;67.80
70323;BME280;57735;56.264;43.898;2022-10-13T14:59:11;101033.09;;;7.81;68.14
70323;BME280;57735;56.264;43.898;2022-10-13T15:01:42;101041.81;;;7.83;68.21
70323;BME280;57735;56.264;43.898;2022-10-13T15:04:13;101040.59;;;7.87;67.90
70323;BME280;57735;56.264;43.898;2022-10-13T15:06:44;101033.34;;;7.89;68.02